Providence, Pennsylvania
Current Conditions -  °F | °C
As of 6:53 AM on Saturday 25 Oct 2014 (Local Time) from KLNS Reporting Station
Clear Clear  
Wind Chill: 41°   Ceiling: Unl
Heat Index: 44°   Visibility: 10mi
Dew Point: 37°   Wind: 6mph
Humidity: 76%   Direction: 290°WNW
Pressure: 29.92"   Gusts: NA
Location:  39.9111°N, 76.2285°W
Report Text: KLNS 251053Z 29005KT 10SM CLR 07/03 A2992 RMK AO2 SLP134 T00670028
Loading
Personal Weather Stations






























Interactive Weather Map
Tropical Storm Tracking
New forecast layout! Learn more

10-Day Weather Forecast

Advertisements
Track Severe Weather on mobile